sensor_id;sensor_type;location;lat;lon;timestamp;P1;durP1;ratioP1;P2;durP2;ratioP2
19595;SDS011;9945;46.010;8.946;2023-04-24T00:00:37;6.97;;;0.50;;
19595;SDS011;9945;46.010;8.946;2023-04-24T00:03:05;1.27;;;0.45;;
19595;SDS011;9945;46.010;8.946;2023-04-24T00:05:33;3.72;;;0.43;;
19595;SDS011;9945;46.010;8.946;2023-04-24T00:08:01;0.75;;;0.60;;
19595;SDS011;9945;46.010;8.946;2023-04-24T00:10:28;0.45;;;0.45;;
19595;SDS011;9945;46.010;8.946;2023-04-24T00:12:55;2.67;;;0.40;;
19595;SDS011;9945;46.010;8.946;2023-04-24T00:15:22;1.23;;;0.75;;
19595;SDS011;9945;46.010;8.946;2023-04-24T00:17:49;0.40;;;0.40;;
19595;SDS011;9945;46.010;8.946;2023-04-24T00:20:17;1.15;;;0.68;;
19595;SDS011;9945;46.010;8.946;2023-04-24T00:22:44;2.28;;;0.45;;
19595;SDS011;9945;46.010;8.946;2023-04-24T00:25:12;0.50;;;0.50;;
19595;SDS011;9945;46.010;8.946;2023-04-24T00:27:39;0.50;;;0.50;;
19595;SDS011;9945;46.010;8.946;2023-04-24T00:30:06;1.08;;;0.55;;
19595;SDS011;9945;46.010;8.946;2023-04-24T00:32:34;1.75;;;0.40;;
19595;SDS011;9945;46.010;8.946;2023-04-24T00:35:01;0.60;;;0.60;;
19595;SDS011;9945;46.010;8.946;2023-04-24T00:37:28;0.53;;;0.53;;
19595;SDS011;9945;46.010;8.946;2023-04-24T00:39:55;0.40;;;0.40;;
19595;SDS011;9945;46.010;8.946;2023-04-24T00:42:23;0.30;;;0.30;;
19595;SDS011;9945;46.010;8.946;2023-04-24T00:44:50;0.30;;;0.30;;
19595;SDS011;9945;46.010;8.946;2023-04-24T00:47:17;0.30;;;0.30;;
19595;SDS011;9945;46.010;8.946;2023-04-24T00:49:46;0.50;;;0.50;;
19595;SDS011;9945;46.010;8.946;2023-04-24T00:52:13;1.48;;;0.30;;
19595;SDS011;9945;46.010;8.946;2023-04-24T00:54:42;0.60;;;0.30;;
19595;SDS011;9945;46.010;8.946;2023-04-24T00:57:10;1.48;;;0.50;;
19595;SDS011;9945;46.010;8.946;2023-04-24T00:59:38;0.55;;;0.50;;
19595;SDS011;9945;46.010;8.946;2023-04-24T01:02:06;0.50;;;0.50;;
19595;SDS011;9945;46.010;8.946;2023-04-24T01:04:33;0.65;;;0.50;;
19595;SDS011;9945;46.010;8.946;2023-04-24T01:07:01;1.08;;;0.60;;
19595;SDS011;9945;46.010;8.946;2023-04-24T01:09:28;0.75;;;0.52;;
19595;SDS011;9945;46.010;8.946;2023-04-24T01:11:55;0.20;;;0.20;;
19595;SDS011;9945;46.010;8.946;2023-04-24T01:14:22;0.30;;;0.30;;
19595;SDS011;9945;46.010;8.946;2023-04-24T01:16:51;0.22;;;0.22;;
19595;SDS011;9945;46.010;8.946;2023-04-24T01:19:18;0.30;;;0.30;;
19595;SDS011;9945;46.010;8.946;2023-04-24T01:21:45;0.30;;;0.30;;
19595;SDS011;9945;46.010;8.946;2023-04-24T01:24:18;0.33;;;0.30;;
19595;SDS011;9945;46.010;8.946;2023-04-24T01:26:45;0.30;;;0.30;;
19595;SDS011;9945;46.010;8.946;2023-04-24T01:29:13;0.30;;;0.30;;
19595;SDS011;9945;46.010;8.946;2023-04-24T01:31:39;0.30;;;0.30;;
19595;SDS011;9945;46.010;8.946;2023-04-24T01:34:06;0.50;;;0.50;;
19595;SDS011;9945;46.010;8.946;2023-04-24T01:36:34;0.70;;;0.55;;
19595;SDS011;9945;46.010;8.946;2023-04-24T01:39:01;0.20;;;0.20;;
19595;SDS011;9945;46.010;8.946;2023-04-24T01:41:30;1.75;;;0.32;;
19595;SDS011;9945;46.010;8.946;2023-04-24T01:43:57;0.20;;;0.20;;
19595;SDS011;9945;46.010;8.946;2023-04-24T01:46:24;0.30;;;0.20;;
19595;SDS011;9945;46.010;8.946;2023-04-24T01:48:52;0.63;;;0.27;;
19595;SDS011;9945;46.010;8.946;2023-04-24T01:51:19;0.35;;;0.35;;
19595;SDS011;9945;46.010;8.946;2023-04-24T01:53:46;1.43;;;0.50;;
19595;SDS011;9945;46.010;8.946;2023-04-24T01:56:14;0.40;;;0.30;;
19595;SDS011;9945;46.010;8.946;2023-04-24T01:58:42;3.47;;;0.50;;
19595;SDS011;9945;46.010;8.946;2023-04-24T02:01:13;1.10;;;0.60;;
19595;SDS011;9945;46.010;8.946;2023-04-24T02:03:41;0.43;;;0.37;;
19595;SDS011;9945;46.010;8.946;2023-04-24T02:06:08;0.40;;;0.40;;
19595;SDS011;9945;46.010;8.946;2023-04-24T02:08:35;0.40;;;0.40;;
19595;SDS011;9945;46.010;8.946;2023-04-24T02:11:02;3.37;;;0.50;;
19595;SDS011;9945;46.010;8.946;2023-04-24T02:13:29;0.83;;;0.50;;
19595;SDS011;9945;46.010;8.946;2023-04-24T02:15:57;0.20;;;0.20;;
19595;SDS011;9945;46.010;8.946;2023-04-24T02:18:24;0.47;;;0.23;;
19595;SDS011;9945;46.010;8.946;2023-04-24T02:20:51;0.40;;;0.40;;
19595;SDS011;9945;46.010;8.946;2023-04-24T02:23:18;0.40;;;0.40;;
19595;SDS011;9945;46.010;8.946;2023-04-24T02:25:45;1.03;;;0.40;;
19595;SDS011;9945;46.010;8.946;2023-04-24T02:28:12;0.90;;;0.37;;
19595;SDS011;9945;46.010;8.946;2023-04-24T02:30:39;0.47;;;0.47;;
19595;SDS011;9945;46.010;8.946;2023-04-24T02:33:07;0.40;;;0.40;;
19595;SDS011;9945;46.010;8.946;2023-04-24T02:35:34;0.40;;;0.40;;
19595;SDS011;9945;46.010;8.946;2023-04-24T02:38:01;0.43;;;0.43;;
19595;SDS011;9945;46.010;8.946;2023-04-24T02:40:28;0.40;;;0.40;;
19595;SDS011;9945;46.010;8.946;2023-04-24T02:42:55;0.50;;;0.50;;
19595;SDS011;9945;46.010;8.946;2023-04-24T02:45:22;0.40;;;0.40;;
19595;SDS011;9945;46.010;8.946;2023-04-24T02:47:49;0.93;;;0.57;;
19595;SDS011;9945;46.010;8.946;2023-04-24T02:50:17;1.47;;;0.60;;
19595;SDS011;9945;46.010;8.946;2023-04-24T02:52:44;1.37;;;0.50;;
19595;SDS011;9945;46.010;8.946;2023-04-24T02:55:11;0.87;;;0.60;;
19595;SDS011;9945;46.010;8.946;2023-04-24T02:57:37;0.90;;;0.70;;
19595;SDS011;9945;46.010;8.946;2023-04-24T03:00:05;3.97;;;0.80;;
19595;SDS011;9945;46.010;8.946;2023-04-24T03:02:34;1.05;;;0.70;;
19595;SDS011;9945;46.010;8.946;2023-04-24T03:05:01;1.33;;;0.57;;
19595;SDS011;9945;46.010;8.946;2023-04-24T03:07:29;0.53;;;0.53;;
19595;SDS011;9945;46.010;8.946;2023-04-24T03:09:57;0.60;;;0.50;;
19595;SDS011;9945;46.010;8.946;2023-04-24T03:12:24;0.88;;;0.65;;
19595;SDS011;9945;46.010;8.946;2023-04-24T03:14:51;0.70;;;0.60;;
19595;SDS011;9945;46.010;8.946;2023-04-24T03:17:18;0.73;;;0.63;;
19595;SDS011;9945;46.010;8.946;2023-04-24T03:19:45;1.87;;;0.87;;
19595;SDS011;9945;46.010;8.946;2023-04-24T03:22:12;1.43;;;0.80;;
19595;SDS011;9945;46.010;8.946;2023-04-24T03:24:40;0.70;;;0.70;;
19595;SDS011;9945;46.010;8.946;2023-04-24T03:27:07;2.93;;;0.80;;
19595;SDS011;9945;46.010;8.946;2023-04-24T03:29:34;3.27;;;1.23;;
19595;SDS011;9945;46.010;8.946;2023-04-24T03:32:00;1.90;;;1.20;;
19595;SDS011;9945;46.010;8.946;2023-04-24T03:34:27;1.00;;;1.00;;
19595;SDS011;9945;46.010;8.946;2023-04-24T03:36:54;0.77;;;0.77;;
19595;SDS011;9945;46.010;8.946;2023-04-24T03:39:21;0.50;;;0.50;;
19595;SDS011;9945;46.010;8.946;2023-04-24T03:41:49;2.93;;;0.50;;
19595;SDS011;9945;46.010;8.946;2023-04-24T03:44:16;1.00;;;0.70;;
19595;SDS011;9945;46.010;8.946;2023-04-24T03:46:43;1.20;;;0.70;;
19595;SDS011;9945;46.010;8.946;2023-04-24T03:49:10;1.40;;;1.00;;
19595;SDS011;9945;46.010;8.946;2023-04-24T03:51:37;0.77;;;0.77;;
19595;SDS011;9945;46.010;8.946;2023-04-24T03:54:03;0.97;;;0.80;;
19595;SDS011;9945;46.010;8.946;2023-04-24T03:56:30;0.70;;;0.70;;
19595;SDS011;9945;46.010;8.946;2023-04-24T03:58:58;1.40;;;1.10;;
19595;SDS011;9945;46.010;8.946;2023-04-24T04:01:25;0.70;;;0.70;;
19595;SDS011;9945;46.010;8.946;2023-04-24T04:03:53;0.70;;;0.70;;
19595;SDS011;9945;46.010;8.946;2023-04-24T04:06:20;0.90;;;0.90;;
19595;SDS011;9945;46.010;8.946;2023-04-24T04:08:47;0.70;;;0.70;;
19595;SDS011;9945;46.010;8.946;2023-04-24T04:11:14;2.17;;;0.80;;
19595;SDS011;9945;46.010;8.946;2023-04-24T04:13:41;1.90;;;0.97;;
19595;SDS011;9945;46.010;8.946;2023-04-24T04:16:09;1.67;;;1.40;;
19595;SDS011;9945;46.010;8.946;2023-04-24T04:18:36;2.47;;;1.13;;
19595;SDS011;9945;46.010;8.946;2023-04-24T04:21:03;3.30;;;1.30;;
19595;SDS011;9945;46.010;8.946;2023-04-24T04:23:30;1.60;;;1.40;;
19595;SDS011;9945;46.010;8.946;2023-04-24T04:25:57;2.03;;;1.50;;
19595;SDS011;9945;46.010;8.946;2023-04-24T04:28:24;1.63;;;1.53;;
19595;SDS011;9945;46.010;8.946;2023-04-24T04:30:51;2.40;;;1.67;;
19595;SDS011;9945;46.010;8.946;2023-04-24T04:33:21;3.43;;;1.90;;
19595;SDS011;9945;46.010;8.946;2023-04-24T04:35:48;1.40;;;1.40;;
19595;SDS011;9945;46.010;8.946;2023-04-24T04:38:17;1.83;;;1.73;;
19595;SDS011;9945;46.010;8.946;2023-04-24T04:40:44;1.93;;;1.73;;
19595;SDS011;9945;46.010;8.946;2023-04-24T04:43:11;2.37;;;1.60;;
19595;SDS011;9945;46.010;8.946;2023-04-24T04:45:40;1.57;;;1.47;;
19595;SDS011;9945;46.010;8.946;2023-04-24T04:48:08;1.67;;;1.50;;
19595;SDS011;9945;46.010;8.946;2023-04-24T04:50:39;4.60;;;1.77;;
19595;SDS011;9945;46.010;8.946;2023-04-24T04:53:06;1.60;;;1.50;;
19595;SDS011;9945;46.010;8.946;2023-04-24T04:55:32;1.60;;;1.50;;
19595;SDS011;9945;46.010;8.946;2023-04-24T04:58:00;1.50;;;1.40;;
19595;SDS011;9945;46.010;8.946;2023-04-24T05:00:26;2.43;;;1.30;;
19595;SDS011;9945;46.010;8.946;2023-04-24T05:02:54;2.33;;;1.57;;
19595;SDS011;9945;46.010;8.946;2023-04-24T05:05:21;3.53;;;1.53;;
19595;SDS011;9945;46.010;8.946;2023-04-24T05:07:49;1.73;;;1.63;;
19595;SDS011;9945;46.010;8.946;2023-04-24T05:10:16;1.90;;;1.53;;
19595;SDS011;9945;46.010;8.946;2023-04-24T05:12:43;1.50;;;1.00;;
19595;SDS011;9945;46.010;8.946;2023-04-24T05:15:10;1.57;;;1.40;;
19595;SDS011;9945;46.010;8.946;2023-04-24T05:17:37;1.30;;;1.20;;
19595;SDS011;9945;46.010;8.946;2023-04-24T05:20:05;3.33;;;1.30;;
19595;SDS011;9945;46.010;8.946;2023-04-24T05:22:33;1.40;;;1.20;;
19595;SDS011;9945;46.010;8.946;2023-04-24T05:25:01;1.53;;;1.40;;
19595;SDS011;9945;46.010;8.946;2023-04-24T05:27:28;1.43;;;1.33;;
19595;SDS011;9945;46.010;8.946;2023-04-24T05:29:55;1.80;;;1.70;;
19595;SDS011;9945;46.010;8.946;2023-04-24T05:32:21;2.00;;;1.90;;
19595;SDS011;9945;46.010;8.946;2023-04-24T05:34:48;2.60;;;2.17;;
19595;SDS011;9945;46.010;8.946;2023-04-24T05:37:15;5.17;;;2.30;;
19595;SDS011;9945;46.010;8.946;2023-04-24T05:39:42;2.50;;;1.83;;
19595;SDS011;9945;46.010;8.946;2023-04-24T05:42:10;2.20;;;2.00;;
19595;SDS011;9945;46.010;8.946;2023-04-24T05:44:37;2.47;;;1.80;;
19595;SDS011;9945;46.010;8.946;2023-04-24T05:47:04;2.77;;;2.13;;
19595;SDS011;9945;46.010;8.946;2023-04-24T05:49:31;2.20;;;2.10;;
19595;SDS011;9945;46.010;8.946;2023-04-24T05:51:58;2.10;;;2.00;;
19595;SDS011;9945;46.010;8.946;2023-04-24T05:54:25;2.13;;;1.70;;
19595;SDS011;9945;46.010;8.946;2023-04-24T05:56:51;2.43;;;2.20;;
19595;SDS011;9945;46.010;8.946;2023-04-24T05:59:21;2.17;;;2.07;;
19595;SDS011;9945;46.010;8.946;2023-04-24T06:01:47;2.87;;;2.10;;
19595;SDS011;9945;46.010;8.946;2023-04-24T06:04:14;5.00;;;2.50;;
19595;SDS011;9945;46.010;8.946;2023-04-24T06:06:41;2.83;;;2.70;;
19595;SDS011;9945;46.010;8.946;2023-04-24T06:09:08;3.63;;;2.57;;
19595;SDS011;9945;46.010;8.946;2023-04-24T06:11:35;4.80;;;3.43;;
19595;SDS011;9945;46.010;8.946;2023-04-24T06:14:02;21.33;;;7.33;;
19595;SDS011;9945;46.010;8.946;2023-04-24T06:16:31;24.47;;;7.80;;
19595;SDS011;9945;46.010;8.946;2023-04-24T06:18:57;16.40;;;6.13;;
19595;SDS011;9945;46.010;8.946;2023-04-24T06:21:24;9.67;;;3.73;;
19595;SDS011;9945;46.010;8.946;2023-04-24T06:23:51;11.23;;;3.90;;
19595;SDS011;9945;46.010;8.946;2023-04-24T06:26:18;10.10;;;3.60;;
19595;SDS011;9945;46.010;8.946;2023-04-24T06:28:45;5.18;;;3.13;;
19595;SDS011;9945;46.010;8.946;2023-04-24T06:31:11;7.22;;;2.70;;
19595;SDS011;9945;46.010;8.946;2023-04-24T06:33:40;5.07;;;1.20;;
19595;SDS011;9945;46.010;8.946;2023-04-24T06:36:07;4.07;;;1.00;;
19595;SDS011;9945;46.010;8.946;2023-04-24T06:38:34;4.57;;;1.08;;
19595;SDS011;9945;46.010;8.946;2023-04-24T06:41:00;1.23;;;1.00;;
19595;SDS011;9945;46.010;8.946;2023-04-24T06:43:28;1.27;;;1.17;;
19595;SDS011;9945;46.010;8.946;2023-04-24T06:45:55;1.67;;;1.10;;
19595;SDS011;9945;46.010;8.946;2023-04-24T06:48:23;1.25;;;1.00;;
19595;SDS011;9945;46.010;8.946;2023-04-24T06:50:51;1.98;;;1.33;;
19595;SDS011;9945;46.010;8.946;2023-04-24T06:53:18;1.20;;;0.95;;
19595;SDS011;9945;46.010;8.946;2023-04-24T06:55:45;1.00;;;0.90;;
19595;SDS011;9945;46.010;8.946;2023-04-24T06:58:12;2.30;;;0.80;;
19595;SDS011;9945;46.010;8.946;2023-04-24T07:00:40;2.90;;;0.88;;
19595;SDS011;9945;46.010;8.946;2023-04-24T07:03:07;3.90;;;0.90;;
19595;SDS011;9945;46.010;8.946;2023-04-24T07:05:33;2.92;;;1.10;;
19595;SDS011;9945;46.010;8.946;2023-04-24T07:08:04;0.75;;;0.75;;
19595;SDS011;9945;46.010;8.946;2023-04-24T07:10:31;0.95;;;0.65;;
19595;SDS011;9945;46.010;8.946;2023-04-24T07:13:00;3.03;;;0.90;;
19595;SDS011;9945;46.010;8.946;2023-04-24T07:15:27;0.98;;;0.90;;
19595;SDS011;9945;46.010;8.946;2023-04-24T07:17:54;1.58;;;1.00;;
19595;SDS011;9945;46.010;8.946;2023-04-24T07:20:21;1.63;;;0.82;;
19595;SDS011;9945;46.010;8.946;2023-04-24T07:22:48;2.45;;;0.80;;
19595;SDS011;9945;46.010;8.946;2023-04-24T07:25:18;0.70;;;0.70;;
19595;SDS011;9945;46.010;8.946;2023-04-24T07:27:45;0.70;;;0.70;;
19595;SDS011;9945;46.010;8.946;2023-04-24T07:30:12;1.05;;;0.93;;
19595;SDS011;9945;46.010;8.946;2023-04-24T07:32:39;1.10;;;0.95;;
19595;SDS011;9945;46.010;8.946;2023-04-24T07:35:06;0.75;;;0.75;;
19595;SDS011;9945;46.010;8.946;2023-04-24T07:37:34;0.95;;;0.60;;
19595;SDS011;9945;46.010;8.946;2023-04-24T07:40:02;2.35;;;0.75;;
19595;SDS011;9945;46.010;8.946;2023-04-24T07:42:30;1.67;;;1.25;;
19595;SDS011;9945;46.010;8.946;2023-04-24T07:44:59;2.83;;;1.27;;
19595;SDS011;9945;46.010;8.946;2023-04-24T07:47:26;4.07;;;1.42;;
19595;SDS011;9945;46.010;8.946;2023-04-24T07:49:53;1.70;;;1.60;;
19595;SDS011;9945;46.010;8.946;2023-04-24T07:52:20;1.52;;;1.42;;
19595;SDS011;9945;46.010;8.946;2023-04-24T07:54:47;3.88;;;1.58;;
19595;SDS011;9945;46.010;8.946;2023-04-24T07:57:14;1.50;;;1.20;;
19595;SDS011;9945;46.010;8.946;2023-04-24T07:59:43;3.42;;;1.20;;
19595;SDS011;9945;46.010;8.946;2023-04-24T08:02:10;2.08;;;1.50;;
19595;SDS011;9945;46.010;8.946;2023-04-24T08:04:37;5.85;;;2.38;;
19595;SDS011;9945;46.010;8.946;2023-04-24T08:07:04;3.13;;;2.60;;
19595;SDS011;9945;46.010;8.946;2023-04-24T08:09:30;3.42;;;2.28;;
19595;SDS011;9945;46.010;8.946;2023-04-24T08:11:57;2.05;;;1.77;;
19595;SDS011;9945;46.010;8.946;2023-04-24T08:14:24;1.55;;;1.45;;
19595;SDS011;9945;46.010;8.946;2023-04-24T08:16:53;2.65;;;1.80;;
19595;SDS011;9945;46.010;8.946;2023-04-24T08:19:21;1.83;;;1.70;;
19595;SDS011;9945;46.010;8.946;2023-04-24T08:21:48;1.65;;;1.50;;
19595;SDS011;9945;46.010;8.946;2023-04-24T08:24:15;1.77;;;1.38;;
19595;SDS011;9945;46.010;8.946;2023-04-24T08:26:42;2.05;;;1.23;;
19595;SDS011;9945;46.010;8.946;2023-04-24T08:29:09;1.35;;;1.15;;
19595;SDS011;9945;46.010;8.946;2023-04-24T08:31:35;1.48;;;1.38;;
19595;SDS011;9945;46.010;8.946;2023-04-24T08:34:04;1.48;;;1.30;;
19595;SDS011;9945;46.010;8.946;2023-04-24T08:36:31;1.23;;;1.20;;
19595;SDS011;9945;46.010;8.946;2023-04-24T08:38:58;2.70;;;1.35;;
19595;SDS011;9945;46.010;8.946;2023-04-24T08:41:26;2.70;;;1.10;;
19595;SDS011;9945;46.010;8.946;2023-04-24T08:43:53;2.47;;;1.13;;
19595;SDS011;9945;46.010;8.946;2023-04-24T08:46:23;1.67;;;1.25;;
19595;SDS011;9945;46.010;8.946;2023-04-24T08:48:50;1.38;;;1.00;;
19595;SDS011;9945;46.010;8.946;2023-04-24T08:51:19;1.20;;;1.20;;
19595;SDS011;9945;46.010;8.946;2023-04-24T08:53:47;0.80;;;0.80;;
19595;SDS011;9945;46.010;8.946;2023-04-24T08:56:14;2.78;;;1.10;;
19595;SDS011;9945;46.010;8.946;2023-04-24T08:58:42;2.17;;;1.00;;
19595;SDS011;9945;46.010;8.946;2023-04-24T09:01:10;2.47;;;0.70;;
19595;SDS011;9945;46.010;8.946;2023-04-24T09:03:38;0.85;;;0.85;;
19595;SDS011;9945;46.010;8.946;2023-04-24T09:06:06;0.73;;;0.73;;
19595;SDS011;9945;46.010;8.946;2023-04-24T09:08:36;1.40;;;1.30;;
19595;SDS011;9945;46.010;8.946;2023-04-24T09:11:07;0.80;;;0.60;;
19595;SDS011;9945;46.010;8.946;2023-04-24T09:13:34;0.68;;;0.60;;
19595;SDS011;9945;46.010;8.946;2023-04-24T09:16:01;0.55;;;0.47;;
19595;SDS011;9945;46.010;8.946;2023-04-24T09:18:28;0.40;;;0.40;;
19595;SDS011;9945;46.010;8.946;2023-04-24T09:20:58;0.60;;;0.60;;
19595;SDS011;9945;46.010;8.946;2023-04-24T09:23:27;1.45;;;0.55;;
19595;SDS011;9945;46.010;8.946;2023-04-24T09:25:56;0.70;;;0.70;;
19595;SDS011;9945;46.010;8.946;2023-04-24T09:28:25;0.70;;;0.70;;
19595;SDS011;9945;46.010;8.946;2023-04-24T09:31:06;0.70;;;0.70;;
19595;SDS011;9945;46.010;8.946;2023-04-24T09:33:35;1.27;;;0.82;;
19595;SDS011;9945;46.010;8.946;2023-04-24T09:36:03;1.63;;;0.95;;
19595;SDS011;9945;46.010;8.946;2023-04-24T09:38:31;0.75;;;0.75;;
19595;SDS011;9945;46.010;8.946;2023-04-24T09:41:01;0.85;;;0.80;;
19595;SDS011;9945;46.010;8.946;2023-04-24T09:43:30;0.90;;;0.90;;
19595;SDS011;9945;46.010;8.946;2023-04-24T09:45:57;0.90;;;0.90;;
19595;SDS011;9945;46.010;8.946;2023-04-24T09:48:32;4.25;;;0.70;;
19595;SDS011;9945;46.010;8.946;2023-04-24T09:51:00;0.73;;;0.73;;
19595;SDS011;9945;46.010;8.946;2023-04-24T09:53:28;4.82;;;1.00;;
19595;SDS011;9945;46.010;8.946;2023-04-24T09:55:56;3.15;;;1.40;;
19595;SDS011;9945;46.010;8.946;2023-04-24T09:58:34;1.00;;;1.00;;
19595;SDS011;9945;46.010;8.946;2023-04-24T10:01:01;2.08;;;1.00;;
19595;SDS011;9945;46.010;8.946;2023-04-24T10:03:29;2.40;;;1.13;;
19595;SDS011;9945;46.010;8.946;2023-04-24T10:05:58;1.30;;;1.10;;
19595;SDS011;9945;46.010;8.946;2023-04-24T10:08:25;2.30;;;0.98;;
19595;SDS011;9945;46.010;8.946;2023-04-24T10:10:52;1.25;;;1.10;;
19595;SDS011;9945;46.010;8.946;2023-04-24T10:13:21;1.77;;;0.90;;
19595;SDS011;9945;46.010;8.946;2023-04-24T10:15:48;1.20;;;1.10;;
19595;SDS011;9945;46.010;8.946;2023-04-24T10:18:16;0.90;;;0.90;;
19595;SDS011;9945;46.010;8.946;2023-04-24T10:20:43;0.85;;;0.85;;
19595;SDS011;9945;46.010;8.946;2023-04-24T10:23:11;1.00;;;1.00;;
19595;SDS011;9945;46.010;8.946;2023-04-24T10:26:24;1.38;;;1.02;;
19595;SDS011;9945;46.010;8.946;2023-04-24T10:28:52;1.00;;;0.90;;
19595;SDS011;9945;46.010;8.946;2023-04-24T10:31:20;2.13;;;1.00;;
19595;SDS011;9945;46.010;8.946;2023-04-24T10:33:47;1.15;;;1.08;;
19595;SDS011;9945;46.010;8.946;2023-04-24T10:36:17;2.72;;;0.80;;
19595;SDS011;9945;46.010;8.946;2023-04-24T10:38:48;1.05;;;1.05;;
19595;SDS011;9945;46.010;8.946;2023-04-24T10:41:16;0.90;;;0.90;;
19595;SDS011;9945;46.010;8.946;2023-04-24T10:43:49;0.98;;;0.98;;
19595;SDS011;9945;46.010;8.946;2023-04-24T10:46:30;0.88;;;0.88;;
19595;SDS011;9945;46.010;8.946;2023-04-24T10:48:57;1.00;;;1.00;;
19595;SDS011;9945;46.010;8.946;2023-04-24T10:51:26;1.45;;;1.35;;
19595;SDS011;9945;46.010;8.946;2023-04-24T10:54:21;3.60;;;1.25;;
19595;SDS011;9945;46.010;8.946;2023-04-24T10:56:49;1.60;;;1.50;;
19595;SDS011;9945;46.010;8.946;2023-04-24T10:59:25;0.80;;;0.80;;
19595;SDS011;9945;46.010;8.946;2023-04-24T11:01:52;1.48;;;1.00;;
19595;SDS011;9945;46.010;8.946;2023-04-24T11:04:28;1.55;;;1.45;;
19595;SDS011;9945;46.010;8.946;2023-04-24T11:06:56;1.20;;;1.10;;
19595;SDS011;9945;46.010;8.946;2023-04-24T11:09:26;1.23;;;0.77;;
19595;SDS011;9945;46.010;8.946;2023-04-24T11:12:02;1.20;;;0.80;;
19595;SDS011;9945;46.010;8.946;2023-04-24T11:17:31;0.90;;;0.90;;
19595;SDS011;9945;46.010;8.946;2023-04-24T11:20:02;1.63;;;1.00;;
19595;SDS011;9945;46.010;8.946;2023-04-24T11:22:32;1.20;;;1.20;;
19595;SDS011;9945;46.010;8.946;2023-04-24T11:25:01;2.92;;;1.20;;
19595;SDS011;9945;46.010;8.946;2023-04-24T11:27:29;1.17;;;1.10;;
19595;SDS011;9945;46.010;8.946;2023-04-24T11:30:02;1.30;;;1.30;;
19595;SDS011;9945;46.010;8.946;2023-04-24T11:32:30;1.67;;;1.30;;
19595;SDS011;9945;46.010;8.946;2023-04-24T11:35:00;1.38;;;1.30;;
19595;SDS011;9945;46.010;8.946;2023-04-24T11:37:33;1.95;;;1.30;;
19595;SDS011;9945;46.010;8.946;2023-04-24T11:40:01;1.10;;;1.02;;
19595;SDS011;9945;46.010;8.946;2023-04-24T11:42:33;1.42;;;1.30;;
19595;SDS011;9945;46.010;8.946;2023-04-24T11:45:02;3.97;;;1.20;;
19595;SDS011;9945;46.010;8.946;2023-04-24T11:47:34;1.58;;;1.48;;
19595;SDS011;9945;46.010;8.946;2023-04-24T11:50:02;1.27;;;1.17;;
19595;SDS011;9945;46.010;8.946;2023-04-24T11:52:31;1.08;;;1.08;;
19595;SDS011;9945;46.010;8.946;2023-04-24T11:54:59;1.25;;;1.10;;
19595;SDS011;9945;46.010;8.946;2023-04-24T11:57:26;1.00;;;1.00;;
19595;SDS011;9945;46.010;8.946;2023-04-24T11:59:58;1.85;;;1.45;;
19595;SDS011;9945;46.010;8.946;2023-04-24T12:02:26;0.90;;;0.90;;
19595;SDS011;9945;46.010;8.946;2023-04-24T12:04:53;1.67;;;1.08;;
19595;SDS011;9945;46.010;8.946;2023-04-24T12:07:21;1.40;;;1.30;;
19595;SDS011;9945;46.010;8.946;2023-04-24T12:09:54;1.58;;;1.45;;
19595;SDS011;9945;46.010;8.946;2023-04-24T12:12:24;1.60;;;1.35;;
19595;SDS011;9945;46.010;8.946;2023-04-24T12:14:52;1.38;;;1.20;;
19595;SDS011;9945;46.010;8.946;2023-04-24T12:17:24;0.77;;;0.77;;
19595;SDS011;9945;46.010;8.946;2023-04-24T12:19:56;20.23;;;16.40;;
19595;SDS011;9945;46.010;8.946;2023-04-24T12:22:25;3.53;;;3.22;;
19595;SDS011;9945;46.010;8.946;2023-04-24T12:24:55;2.83;;;1.80;;
19595;SDS011;9945;46.010;8.946;2023-04-24T12:27:23;1.42;;;1.33;;
19595;SDS011;9945;46.010;8.946;2023-04-24T12:29:53;1.65;;;1.50;;
19595;SDS011;9945;46.010;8.946;2023-04-24T12:32:22;1.63;;;1.40;;
19595;SDS011;9945;46.010;8.946;2023-04-24T12:34:51;2.03;;;1.30;;
19595;SDS011;9945;46.010;8.946;2023-04-24T12:37:19;2.13;;;1.50;;
19595;SDS011;9945;46.010;8.946;2023-04-24T12:42:31;1.08;;;1.08;;
19595;SDS011;9945;46.010;8.946;2023-04-24T12:44:58;1.02;;;0.85;;
19595;SDS011;9945;46.010;8.946;2023-04-24T12:47:26;0.50;;;0.50;;
19595;SDS011;9945;46.010;8.946;2023-04-24T12:49:55;0.32;;;0.32;;
19595;SDS011;9945;46.010;8.946;2023-04-24T12:52:22;0.75;;;0.60;;
19595;SDS011;9945;46.010;8.946;2023-04-24T12:54:51;0.93;;;0.93;;
19595;SDS011;9945;46.010;8.946;2023-04-24T12:57:19;0.70;;;0.70;;
19595;SDS011;9945;46.010;8.946;2023-04-24T12:59:46;0.75;;;0.75;;
19595;SDS011;9945;46.010;8.946;2023-04-24T13:02:13;0.40;;;0.40;;
19595;SDS011;9945;46.010;8.946;2023-04-24T13:04:43;1.75;;;0.40;;
19595;SDS011;9945;46.010;8.946;2023-04-24T13:07:11;0.82;;;0.82;;
19595;SDS011;9945;46.010;8.946;2023-04-24T13:09:39;1.38;;;0.93;;
19595;SDS011;9945;46.010;8.946;2023-04-24T13:12:06;0.90;;;0.82;;
19595;SDS011;9945;46.010;8.946;2023-04-24T13:14:33;0.73;;;0.73;;
19595;SDS011;9945;46.010;8.946;2023-04-24T13:17:00;1.17;;;0.60;;
19595;SDS011;9945;46.010;8.946;2023-04-24T13:19:28;1.90;;;1.15;;
19595;SDS011;9945;46.010;8.946;2023-04-24T13:21:55;0.65;;;0.65;;
19595;SDS011;9945;46.010;8.946;2023-04-24T13:24:25;2.10;;;0.75;;
19595;SDS011;9945;46.010;8.946;2023-04-24T13:26:52;3.05;;;1.17;;
19595;SDS011;9945;46.010;8.946;2023-04-24T13:29:21;1.98;;;1.00;;
19595;SDS011;9945;46.010;8.946;2023-04-24T13:31:49;0.70;;;0.70;;
19595;SDS011;9945;46.010;8.946;2023-04-24T13:34:17;1.88;;;0.75;;
19595;SDS011;9945;46.010;8.946;2023-04-24T13:36:44;2.25;;;0.50;;
19595;SDS011;9945;46.010;8.946;2023-04-24T13:39:11;0.38;;;0.38;;
19595;SDS011;9945;46.010;8.946;2023-04-24T13:41:39;0.40;;;0.30;;
19595;SDS011;9945;46.010;8.946;2023-04-24T13:44:06;1.95;;;0.30;;
19595;SDS011;9945;46.010;8.946;2023-04-24T13:46:33;1.50;;;0.52;;
19595;SDS011;9945;46.010;8.946;2023-04-24T13:49:01;0.30;;;0.30;;
19595;SDS011;9945;46.010;8.946;2023-04-24T13:51:28;0.43;;;0.43;;
19595;SDS011;9945;46.010;8.946;2023-04-24T13:53:55;0.85;;;0.22;;
19595;SDS011;9945;46.010;8.946;2023-04-24T13:56:22;0.38;;;0.30;;
19595;SDS011;9945;46.010;8.946;2023-04-24T13:58:50;0.40;;;0.40;;
19595;SDS011;9945;46.010;8.946;2023-04-24T14:01:19;0.30;;;0.30;;
19595;SDS011;9945;46.010;8.946;2023-04-24T14:03:46;0.50;;;0.40;;
19595;SDS011;9945;46.010;8.946;2023-04-24T14:06:13;0.45;;;0.32;;
19595;SDS011;9945;46.010;8.946;2023-04-24T14:08:39;0.98;;;0.98;;
19595;SDS011;9945;46.010;8.946;2023-04-24T14:11:06;0.60;;;0.60;;
19595;SDS011;9945;46.010;8.946;2023-04-24T14:13:33;0.40;;;0.40;;
19595;SDS011;9945;46.010;8.946;2023-04-24T14:16:03;0.43;;;0.43;;
19595;SDS011;9945;46.010;8.946;2023-04-24T14:18:30;0.40;;;0.30;;
19595;SDS011;9945;46.010;8.946;2023-04-24T14:20:57;0.60;;;0.30;;
19595;SDS011;9945;46.010;8.946;2023-04-24T14:23:24;0.40;;;0.40;;
19595;SDS011;9945;46.010;8.946;2023-04-24T14:25:51;0.20;;;0.20;;
19595;SDS011;9945;46.010;8.946;2023-04-24T14:28:18;0.50;;;0.45;;
19595;SDS011;9945;46.010;8.946;2023-04-24T14:30:45;0.80;;;0.60;;
19595;SDS011;9945;46.010;8.946;2023-04-24T14:33:13;1.40;;;0.80;;
19595;SDS011;9945;46.010;8.946;2023-04-24T14:35:41;0.70;;;0.55;;
19595;SDS011;9945;46.010;8.946;2023-04-24T14:38:08;0.63;;;0.60;;
19595;SDS011;9945;46.010;8.946;2023-04-24T14:40:35;0.70;;;0.70;;
19595;SDS011;9945;46.010;8.946;2023-04-24T14:43:02;1.83;;;0.70;;
19595;SDS011;9945;46.010;8.946;2023-04-24T14:45:29;0.80;;;0.80;;
19595;SDS011;9945;46.010;8.946;2023-04-24T14:47:57;0.65;;;0.52;;
19595;SDS011;9945;46.010;8.946;2023-04-24T14:50:25;1.85;;;0.93;;
19595;SDS011;9945;46.010;8.946;2023-04-24T14:52:53;1.95;;;0.60;;
19595;SDS011;9945;46.010;8.946;2023-04-24T14:55:20;1.38;;;0.70;;
19595;SDS011;9945;46.010;8.946;2023-04-24T14:57:47;0.55;;;0.55;;
19595;SDS011;9945;46.010;8.946;2023-04-24T15:00:14;0.82;;;0.80;;
19595;SDS011;9945;46.010;8.946;2023-04-24T15:02:42;2.72;;;0.80;;
19595;SDS011;9945;46.010;8.946;2023-04-24T15:05:09;0.80;;;0.80;;
19595;SDS011;9945;46.010;8.946;2023-04-24T15:07:38;2.05;;;1.08;;
19595;SDS011;9945;46.010;8.946;2023-04-24T15:10:07;0.65;;;0.65;;